sensor_id;sensor_type;location;lat;lon;timestamp;pressure;altitude;pressure_sealevel;temperature;humidity
66887;BME280;67239;51.680;5.976;2024-03-08T00:00:14;101708.38;;;2.55;95.28
66887;BME280;67239;51.680;5.976;2024-03-08T00:02:47;101704.88;;;2.53;95.35
66887;BME280;67239;51.680;5.976;2024-03-08T00:05:15;101711.81;;;2.52;95.42
66887;BME280;67239;51.680;5.976;2024-03-08T00:07:42;101704.81;;;2.49;95.37
66887;BME280;67239;51.680;5.976;2024-03-08T00:10:12;101702.13;;;2.45;95.33
66887;BME280;67239;51.680;5.976;2024-03-08T00:12:43;101707.25;;;2.40;95.42
66887;BME280;67239;51.680;5.976;2024-03-08T00:15:14;101707.25;;;2.40;95.45
66887;BME280;67239;51.680;5.976;2024-03-08T00:17:45;101698.53;;;2.37;95.81
66887;BME280;67239;51.680;5.976;2024-03-08T00:20:15;101703.72;;;2.35;95.42
66887;BME280;67239;51.680;5.976;2024-03-08T00:22:45;101706.31;;;2.33;95.44
66887;BME280;67239;51.680;5.976;2024-03-08T00:25:13;101706.25;;;2.30;95.18
66887;BME280;67239;51.680;5.976;2024-03-08T00:27:41;101699.25;;;2.28;95.44
66887;BME280;67239;51.680;5.976;2024-03-08T00:30:09;101700.97;;;2.26;95.62
66887;BME280;67239;51.680;5.976;2024-03-08T00:32:37;101695.75;;;2.26;95.46
66887;BME280;67239;51.680;5.976;2024-03-08T00:35:05;101694.91;;;2.27;95.40
66887;BME280;67239;51.680;5.976;2024-03-08T00:37:36;101695.69;;;2.24;95.48
66887;BME280;67239;51.680;5.976;2024-03-08T00:40:03;101694.84;;;2.25;95.42
66887;BME280;67239;51.680;5.976;2024-03-08T00:42:34;101687.06;;;2.25;95.30
66887;BME280;67239;51.680;5.976;2024-03-08T00:45:02;101682.69;;;2.23;95.29
66887;BME280;67239;51.680;5.976;2024-03-08T00:47:30;101686.13;;;2.22;95.05
66887;BME280;67239;51.680;5.976;2024-03-08T00:49:57;101664.31;;;2.13;95.04
66887;BME280;67239;51.680;5.976;2024-03-08T00:52:24;101671.19;;;2.11;95.36
66887;BME280;67239;51.680;5.976;2024-03-08T00:54:52;101671.19;;;2.10;95.30
66887;BME280;67239;51.680;5.976;2024-03-08T00:57:19;101663.31;;;2.07;95.48
66887;BME280;67239;51.680;5.976;2024-03-08T00:59:46;101659.84;;;2.06;95.37
66887;BME280;67239;51.680;5.976;2024-03-08T01:02:14;101653.75;;;2.04;95.39
66887;BME280;67239;51.680;5.976;2024-03-08T01:04:41;101658.03;;;2.04;95.67
66887;BME280;67239;51.680;5.976;2024-03-08T01:07:08;101658.00;;;2.00;95.59
66887;BME280;67239;51.680;5.976;2024-03-08T01:09:35;101653.63;;;1.98;95.50
66887;BME280;67239;51.680;5.976;2024-03-08T01:12:03;101644.09;;;1.97;95.41
66887;BME280;67239;51.680;5.976;2024-03-08T01:14:30;101643.16;;;1.93;95.37
66887;BME280;67239;51.680;5.976;2024-03-08T01:16:57;101642.25;;;1.93;95.46
66887;BME280;67239;51.680;5.976;2024-03-08T01:19:25;101640.41;;;1.87;95.45
66887;BME280;67239;51.680;5.976;2024-03-08T01:21:53;101634.31;;;1.85;95.48
66887;BME280;67239;51.680;5.976;2024-03-08T01:24:22;101627.31;;;1.81;95.76
66887;BME280;67239;51.680;5.976;2024-03-08T01:26:50;101622.97;;;1.80;95.73
66887;BME280;67239;51.680;5.976;2024-03-08T01:29:17;101629.00;;;1.77;95.69
66887;BME280;67239;51.680;5.976;2024-03-08T01:31:44;101618.53;;;1.74;95.76
66887;BME280;67239;51.680;5.976;2024-03-08T01:34:11;101622.81;;;1.72;95.87
66887;BME280;67239;51.680;5.976;2024-03-08T01:36:38;101621.91;;;1.70;96.03
66887;BME280;67239;51.680;5.976;2024-03-08T01:39:05;101616.63;;;1.65;96.32
66887;BME280;67239;51.680;5.976;2024-03-08T01:41:35;101615.69;;;1.63;96.46
66887;BME280;67239;51.680;5.976;2024-03-08T01:44:03;101614.81;;;1.61;96.33
66887;BME280;67239;51.680;5.976;2024-03-08T01:46:30;101606.97;;;1.60;96.55
66887;BME280;67239;51.680;5.976;2024-03-08T01:48:59;101609.53;;;1.57;96.57
66887;BME280;67239;51.680;5.976;2024-03-08T01:51:29;101606.88;;;1.55;96.74
66887;BME280;67239;51.680;5.976;2024-03-08T01:53:58;101605.97;;;1.53;96.68
66887;BME280;67239;51.680;5.976;2024-03-08T01:56:29;101609.41;;;1.50;96.72
66887;BME280;67239;51.680;5.976;2024-03-08T01:58:59;101608.56;;;1.51;96.87
66887;BME280;67239;51.680;5.976;2024-03-08T02:01:28;101608.56;;;1.53;96.82
66887;BME280;67239;51.680;5.976;2024-03-08T02:03:55;101604.19;;;1.50;96.98
66887;BME280;67239;51.680;5.976;2024-03-08T02:06:23;101602.50;;;1.51;96.69
66887;BME280;67239;51.680;5.976;2024-03-08T02:08:50;101602.50;;;1.51;96.66
66887;BME280;67239;51.680;5.976;2024-03-08T02:11:18;101591.25;;;1.52;96.62
66887;BME280;67239;51.680;5.976;2024-03-08T02:13:47;101592.13;;;1.52;96.60
66887;BME280;67239;51.680;5.976;2024-03-08T02:16:20;101590.38;;;1.53;96.49
66887;BME280;67239;51.680;5.976;2024-03-08T02:18:49;101592.06;;;1.49;96.37
66887;BME280;67239;51.680;5.976;2024-03-08T02:21:17;101586.06;;;1.52;96.21
66887;BME280;67239;51.680;5.976;2024-03-08T02:23:45;101582.56;;;1.50;95.97
66887;BME280;67239;51.680;5.976;2024-03-08T02:26:13;101578.13;;;1.46;96.09
66887;BME280;67239;51.680;5.976;2024-03-08T02:28:41;101577.22;;;1.44;96.30
66887;BME280;67239;51.680;5.976;2024-03-08T02:31:10;101579.78;;;1.41;96.32
66887;BME280;67239;51.680;5.976;2024-03-08T02:33:37;101571.09;;;1.40;95.99
66887;BME280;67239;51.680;5.976;2024-03-08T02:36:05;101565.81;;;1.35;96.07
66887;BME280;67239;51.680;5.976;2024-03-08T02:38:33;101562.34;;;1.35;96.25
66887;BME280;67239;51.680;5.976;2024-03-08T02:41:00;101564.00;;;1.31;96.35
66887;BME280;67239;51.680;5.976;2024-03-08T02:43:27;101553.56;;;1.30;96.30
66887;BME280;67239;51.680;5.976;2024-03-08T02:45:55;101551.81;;;1.29;96.40
66887;BME280;67239;51.680;5.976;2024-03-08T02:48:22;101555.22;;;1.26;96.36
66887;BME280;67239;51.680;5.976;2024-03-08T02:50:49;101556.91;;;1.22;96.39
66887;BME280;67239;51.680;5.976;2024-03-08T02:53:19;101549.94;;;1.20;96.63
66887;BME280;67239;51.680;5.976;2024-03-08T02:55:46;101557.63;;;1.15;96.56
66887;BME280;67239;51.680;5.976;2024-03-08T02:58:13;101548.03;;;1.13;96.64
66887;BME280;67239;51.680;5.976;2024-03-08T03:00:42;101552.28;;;1.09;96.69
66887;BME280;67239;51.680;5.976;2024-03-08T03:03:11;101544.50;;;1.09;96.68
66887;BME280;67239;51.680;5.976;2024-03-08T03:05:38;101551.38;;;1.07;96.66
66887;BME280;67239;51.680;5.976;2024-03-08T03:08:13;101544.47;;;1.06;96.87
66887;BME280;67239;51.680;5.976;2024-03-08T03:10:42;101544.47;;;1.06;96.73
66887;BME280;67239;51.680;5.976;2024-03-08T03:13:09;101548.75;;;1.04;96.69
66887;BME280;67239;51.680;5.976;2024-03-08T03:15:36;101537.44;;;1.02;96.66
66887;BME280;67239;51.680;5.976;2024-03-08T03:18:04;101534.00;;;1.01;96.69
66887;BME280;67239;51.680;5.976;2024-03-08T03:20:35;101539.13;;;1.00;96.89
66887;BME280;67239;51.680;5.976;2024-03-08T03:23:09;101533.00;;;0.96;96.85
66887;BME280;67239;51.680;5.976;2024-03-08T03:25:36;101536.41;;;0.93;96.86
66887;BME280;67239;51.680;5.976;2024-03-08T03:28:05;101528.56;;;0.90;96.88
66887;BME280;67239;51.680;5.976;2024-03-08T03:30:34;101522.50;;;0.90;96.88
66887;BME280;67239;51.680;5.976;2024-03-08T03:33:02;101521.50;;;0.85;96.97
66887;BME280;67239;51.680;5.976;2024-03-08T03:35:37;101523.19;;;0.83;97.02
66887;BME280;67239;51.680;5.976;2024-03-08T03:38:05;101517.97;;;0.80;97.17
66887;BME280;67239;51.680;5.976;2024-03-08T03:40:38;101530.00;;;0.76;97.10
66887;BME280;67239;51.680;5.976;2024-03-08T03:43:07;101520.41;;;0.73;97.29
66887;BME280;67239;51.680;5.976;2024-03-08T03:45:36;101515.22;;;0.73;97.37
66887;BME280;67239;51.680;5.976;2024-03-08T03:48:05;101513.44;;;0.71;97.54
66887;BME280;67239;51.680;5.976;2024-03-08T03:50:38;101520.38;;;0.70;97.58
66887;BME280;67239;51.680;5.976;2024-03-08T03:53:08;101509.13;;;0.71;97.41
66887;BME280;67239;51.680;5.976;2024-03-08T03:55:37;101505.63;;;0.69;97.59
66887;BME280;67239;51.680;5.976;2024-03-08T03:58:08;101509.13;;;0.71;97.57
66887;BME280;67239;51.680;5.976;2024-03-08T04:00:39;101510.88;;;0.72;97.40
66887;BME280;67239;51.680;5.976;2024-03-08T04:03:06;101510.09;;;0.75;97.22
66887;BME280;67239;51.680;5.976;2024-03-08T04:05:34;101509.16;;;0.73;97.28
66887;BME280;67239;51.680;5.976;2024-03-08T04:08:09;101502.25;;;0.73;97.19
66887;BME280;67239;51.680;5.976;2024-03-08T04:10:37;101506.59;;;0.74;97.07
66887;BME280;67239;51.680;5.976;2024-03-08T04:13:04;101503.97;;;0.73;97.20
66887;BME280;67239;51.680;5.976;2024-03-08T04:15:31;101497.88;;;0.71;97.41
66887;BME280;67239;51.680;5.976;2024-03-08T04:17:58;101497.06;;;0.73;97.10
66887;BME280;67239;51.680;5.976;2024-03-08T04:20:27;101491.00;;;0.74;97.06
66887;BME280;67239;51.680;5.976;2024-03-08T04:22:55;101494.47;;;0.73;97.04
66887;BME280;67239;51.680;5.976;2024-03-08T04:25:23;101491.84;;;0.73;97.15
66887;BME280;67239;51.680;5.976;2024-03-08T04:27:50;101493.59;;;0.73;97.26
66887;BME280;67239;51.680;5.976;2024-03-08T04:30:19;101480.63;;;0.73;96.98
66887;BME280;67239;51.680;5.976;2024-03-08T04:32:48;101481.47;;;0.72;96.95
66887;BME280;67239;51.680;5.976;2024-03-08T04:35:16;101487.50;;;0.71;97.10
66887;BME280;67239;51.680;5.976;2024-03-08T04:37:43;101473.66;;;0.70;97.10
66887;BME280;67239;51.680;5.976;2024-03-08T04:40:11;101484.03;;;0.70;97.09
66887;BME280;67239;51.680;5.976;2024-03-08T04:42:40;101482.28;;;0.71;97.18
66887;BME280;67239;51.680;5.976;2024-03-08T04:45:09;101480.53;;;0.70;96.99
66887;BME280;67239;51.680;5.976;2024-03-08T04:47:40;101481.38;;;0.69;97.10
66887;BME280;67239;51.680;5.976;2024-03-08T04:50:08;101479.63;;;0.68;97.14
66887;BME280;67239;51.680;5.976;2024-03-08T04:52:36;101482.19;;;0.66;96.99
66887;BME280;67239;51.680;5.976;2024-03-08T04:55:04;101476.16;;;0.66;97.18
66887;BME280;67239;51.680;5.976;2024-03-08T04:57:32;101474.31;;;0.61;97.19
66887;BME280;67239;51.680;5.976;2024-03-08T04:59:59;101469.13;;;0.61;97.12
66887;BME280;67239;51.680;5.976;2024-03-08T05:02:26;101464.75;;;0.59;97.17
66887;BME280;67239;51.680;5.976;2024-03-08T05:04:53;101460.34;;;0.56;97.23
66887;BME280;67239;51.680;5.976;2024-03-08T05:07:21;101458.59;;;0.54;97.26
66887;BME280;67239;51.680;5.976;2024-03-08T05:09:48;101460.34;;;0.56;97.36
66887;BME280;67239;51.680;5.976;2024-03-08T05:12:19;101456.00;;;0.54;97.44
66887;BME280;67239;51.680;5.976;2024-03-08T05:14:46;101452.44;;;0.49;97.64
66887;BME280;67239;51.680;5.976;2024-03-08T05:17:16;101455.94;;;0.51;97.74
66887;BME280;67239;51.680;5.976;2024-03-08T05:19:44;101448.22;;;0.54;97.57
66887;BME280;67239;51.680;5.976;2024-03-08T05:22:12;101443.91;;;0.54;97.72
66887;BME280;67239;51.680;5.976;2024-03-08T05:24:40;101443.91;;;0.54;97.64
66887;BME280;67239;51.680;5.976;2024-03-08T05:27:07;101438.72;;;0.54;97.49
66887;BME280;67239;51.680;5.976;2024-03-08T05:29:34;101437.81;;;0.52;97.69
66887;BME280;67239;51.680;5.976;2024-03-08T05:32:01;101448.09;;;0.49;97.75
66887;BME280;67239;51.680;5.976;2024-03-08T05:34:31;101440.31;;;0.49;97.71
66887;BME280;67239;51.680;5.976;2024-03-08T05:36:59;101441.16;;;0.46;97.87
66887;BME280;67239;51.680;5.976;2024-03-08T05:39:27;101442.91;;;0.48;97.89
66887;BME280;67239;51.680;5.976;2024-03-08T05:41:55;101432.59;;;0.51;98.83
66887;BME280;67239;51.680;5.976;2024-03-08T05:44:22;101433.63;;;0.59;100.00
66887;BME280;67239;51.680;5.976;2024-03-08T05:46:50;101431.25;;;0.71;100.00
66887;BME280;67239;51.680;5.976;2024-03-08T05:49:17;101433.28;;;0.86;100.00
66887;BME280;67239;51.680;5.976;2024-03-08T05:51:44;101428.31;;;0.99;100.00
66887;BME280;67239;51.680;5.976;2024-03-08T05:54:14;101434.56;;;1.08;100.00
66887;BME280;67239;51.680;5.976;2024-03-08T05:56:45;101430.38;;;1.15;99.99
66887;BME280;67239;51.680;5.976;2024-03-08T05:59:14;101423.41;;;1.14;99.62
66887;BME280;67239;51.680;5.976;2024-03-08T06:01:41;101426.78;;;1.10;99.03
66887;BME280;67239;51.680;5.976;2024-03-08T06:04:09;101413.84;;;1.12;99.44
66887;BME280;67239;51.680;5.976;2024-03-08T06:06:41;101417.41;;;1.18;100.00
66887;BME280;67239;51.680;5.976;2024-03-08T06:09:08;101418.44;;;1.27;99.66
66887;BME280;67239;51.680;5.976;2024-03-08T06:11:39;101418.53;;;1.33;99.14
66887;BME280;67239;51.680;5.976;2024-03-08T06:14:06;101408.94;;;1.29;97.78
66887;BME280;67239;51.680;5.976;2024-03-08T06:16:33;101413.34;;;1.33;99.05
66887;BME280;67239;51.680;5.976;2024-03-08T06:19:02;101411.88;;;1.49;99.41
66887;BME280;67239;51.680;5.976;2024-03-08T06:21:30;101403.31;;;1.56;97.11
66887;BME280;67239;51.680;5.976;2024-03-08T06:23:59;101409.44;;;1.60;96.94
66887;BME280;67239;51.680;5.976;2024-03-08T06:26:26;101410.41;;;1.65;96.56
66887;BME280;67239;51.680;5.976;2024-03-08T06:28:58;101404.38;;;1.67;95.26
66887;BME280;67239;51.680;5.976;2024-03-08T06:31:25;101406.19;;;1.75;94.90
66887;BME280;67239;51.680;5.976;2024-03-08T06:33:53;101417.50;;;1.75;94.20
66887;BME280;67239;51.680;5.976;2024-03-08T06:36:23;101406.31;;;1.81;93.95
66887;BME280;67239;51.680;5.976;2024-03-08T06:38:51;101408.09;;;1.85;93.90
66887;BME280;67239;51.680;5.976;2024-03-08T06:41:19;101413.28;;;1.85;93.40
66887;BME280;67239;51.680;5.976;2024-03-08T06:43:47;101411.53;;;1.82;92.69
66887;BME280;67239;51.680;5.976;2024-03-08T06:46:16;101409.75;;;1.80;92.52
66887;BME280;67239;51.680;5.976;2024-03-08T06:48:43;101402.88;;;1.82;92.45
66887;BME280;67239;51.680;5.976;2024-03-08T06:51:13;101402.94;;;1.86;92.53
66887;BME280;67239;51.680;5.976;2024-03-08T06:53:41;101410.03;;;2.00;92.29
66887;BME280;67239;51.680;5.976;2024-03-08T06:56:09;101394.53;;;2.08;92.01
66887;BME280;67239;51.680;5.976;2024-03-08T06:58:36;101402.47;;;2.17;91.57
66887;BME280;67239;51.680;5.976;2024-03-08T07:01:04;101393.97;;;2.29;90.93
66887;BME280;67239;51.680;5.976;2024-03-08T07:03:35;101401.88;;;2.38;90.04
66887;BME280;67239;51.680;5.976;2024-03-08T07:06:02;101393.97;;;2.32;88.90
66887;BME280;67239;51.680;5.976;2024-03-08T07:08:35;101398.28;;;2.28;89.19
66887;BME280;67239;51.680;5.976;2024-03-08T07:11:02;101391.38;;;2.32;89.41
66887;BME280;67239;51.680;5.976;2024-03-08T07:13:30;101388.91;;;2.41;89.55
66887;BME280;67239;51.680;5.976;2024-03-08T07:15:57;101391.59;;;2.51;88.70
66887;BME280;67239;51.680;5.976;2024-03-08T07:18:28;101396.06;;;2.58;88.42
66887;BME280;67239;51.680;5.976;2024-03-08T07:20:57;101391.75;;;2.63;88.68
66887;BME280;67239;51.680;5.976;2024-03-08T07:23:25;101393.59;;;2.73;88.08
66887;BME280;67239;51.680;5.976;2024-03-08T07:26:27;101386.75;;;2.82;87.58
66887;BME280;67239;51.680;5.976;2024-03-08T07:28:54;101386.81;;;2.89;87.22
66887;BME280;67239;51.680;5.976;2024-03-08T07:31:22;101379.94;;;2.94;86.27
66887;BME280;67239;51.680;5.976;2024-03-08T07:34:04;101380.00;;;3.02;85.93
66887;BME280;67239;51.680;5.976;2024-03-08T07:36:34;101384.34;;;3.02;85.19
66887;BME280;67239;51.680;5.976;2024-03-08T07:39:04;101375.56;;;2.89;84.69
66887;BME280;67239;51.680;5.976;2024-03-08T07:41:38;101378.03;;;2.76;85.18
66887;BME280;67239;51.680;5.976;2024-03-08T07:44:07;101368.38;;;2.68;85.48
66887;BME280;67239;51.680;5.976;2024-03-08T07:46:34;101370.97;;;2.64;85.78
66887;BME280;67239;51.680;5.976;2024-03-08T07:49:02;101369.16;;;2.60;86.15
66887;BME280;67239;51.680;5.976;2024-03-08T07:51:30;101371.78;;;2.62;86.44
66887;BME280;67239;51.680;5.976;2024-03-08T07:53:57;101364.03;;;2.67;86.17
66887;BME280;67239;51.680;5.976;2024-03-08T07:56:24;101366.66;;;2.68;86.52
66887;BME280;67239;51.680;5.976;2024-03-08T07:58:52;101362.41;;;2.78;85.78
66887;BME280;67239;51.680;5.976;2024-03-08T08:01:20;101353.75;;;2.79;85.97
66887;BME280;67239;51.680;5.976;2024-03-08T08:03:47;101355.53;;;2.83;85.82
66887;BME280;67239;51.680;5.976;2024-03-08T08:06:17;101346.91;;;2.89;85.74
66887;BME280;67239;51.680;5.976;2024-03-08T08:08:45;101344.34;;;2.93;86.08
66887;BME280;67239;51.680;5.976;2024-03-08T08:11:12;101340.03;;;3.00;85.22
66887;BME280;67239;51.680;5.976;2024-03-08T08:13:39;101345.31;;;3.05;85.13
66887;BME280;67239;51.680;5.976;2024-03-08T08:16:06;101334.94;;;3.11;85.73
66887;BME280;67239;51.680;5.976;2024-03-08T08:18:34;101335.00;;;3.22;85.81
66887;BME280;67239;51.680;5.976;2024-03-08T08:21:03;101331.63;;;3.29;85.38
66887;BME280;67239;51.680;5.976;2024-03-08T08:23:32;101329.06;;;3.41;84.62
66887;BME280;67239;51.680;5.976;2024-03-08T08:26:00;101328.28;;;3.50;83.97
66887;BME280;67239;51.680;5.976;2024-03-08T08:28:28;101322.22;;;3.56;84.56
66887;BME280;67239;51.680;5.976;2024-03-08T08:30:55;101321.44;;;3.68;83.65
66887;BME280;67239;51.680;5.976;2024-03-08T08:33:22;101331.03;;;3.72;83.67
66887;BME280;67239;51.680;5.976;2024-03-08T08:35:52;101319.75;;;3.79;83.56
66887;BME280;67239;51.680;5.976;2024-03-08T08:38:20;101308.50;;;3.89;83.24
66887;BME280;67239;51.680;5.976;2024-03-08T08:40:48;101312.00;;;3.98;83.51
66887;BME280;67239;51.680;5.976;2024-03-08T08:43:16;101303.38;;;4.08;82.56
66887;BME280;67239;51.680;5.976;2024-03-08T08:45:44;101306.91;;;4.21;81.55
66887;BME280;67239;51.680;5.976;2024-03-08T08:48:14;101295.63;;;4.28;81.59
66887;BME280;67239;51.680;5.976;2024-03-08T08:50:42;101292.13;;;4.32;81.33
66887;BME280;67239;51.680;5.976;2024-03-08T08:53:11;101296.50;;;4.43;80.79
66887;BME280;67239;51.680;5.976;2024-03-08T08:55:40;101300.03;;;4.51;80.88
66887;BME280;67239;51.680;5.976;2024-03-08T08:58:07;101286.13;;;4.57;80.38
66887;BME280;67239;51.680;5.976;2024-03-08T09:00:34;101287.88;;;4.64;81.38
66887;BME280;67239;51.680;5.976;2024-03-08T09:03:02;101284.41;;;4.79;79.64
66887;BME280;67239;51.680;5.976;2024-03-08T09:05:29;101280.03;;;4.89;79.39
66887;BME280;67239;51.680;5.976;2024-03-08T09:07:57;101280.91;;;5.00;79.09
66887;BME280;67239;51.680;5.976;2024-03-08T09:10:24;101273.06;;;5.05;79.32
66887;BME280;67239;51.680;5.976;2024-03-08T09:12:54;101270.44;;;5.17;78.97
66887;BME280;67239;51.680;5.976;2024-03-08T09:15:22;101260.84;;;5.30;76.78
66887;BME280;67239;51.680;5.976;2024-03-08T09:17:49;101266.97;;;5.34;76.99
66887;BME280;67239;51.680;5.976;2024-03-08T09:20:17;101264.31;;;5.41;76.61
66887;BME280;67239;51.680;5.976;2024-03-08T09:22:45;101255.59;;;5.50;76.21
66887;BME280;67239;51.680;5.976;2024-03-08T09:25:13;101263.41;;;5.56;76.70
66887;BME280;67239;51.680;5.976;2024-03-08T09:27:41;101259.88;;;5.70;75.43
66887;BME280;67239;51.680;5.976;2024-03-08T09:30:08;101259.81;;;5.81;75.17
66887;BME280;67239;51.680;5.976;2024-03-08T09:32:36;101252.84;;;5.89;75.74
66887;BME280;67239;51.680;5.976;2024-03-08T09:35:05;101247.56;;;6.00;74.63
66887;BME280;67239;51.680;5.976;2024-03-08T09:37:35;101237.94;;;6.10;74.22
66887;BME280;67239;51.680;5.976;2024-03-08T09:40:03;101235.28;;;6.19;74.17
66887;BME280;67239;51.680;5.976;2024-03-08T09:42:31;101230.84;;;6.29;74.41
66887;BME280;67239;51.680;5.976;2024-03-08T09:45:00;101224.66;;;6.42;74.86
66887;BME280;67239;51.680;5.976;2024-03-08T09:47:28;101217.53;;;6.60;71.74
66887;BME280;67239;51.680;5.976;2024-03-08T09:50:00;101204.44;;;6.61;72.12
66887;BME280;67239;51.680;5.976;2024-03-08T09:52:29;101204.34;;;6.71;73.40
66887;BME280;67239;51.680;5.976;2024-03-08T09:54:58;101204.19;;;6.88;72.20
66887;BME280;67239;51.680;5.976;2024-03-08T09:57:26;101200.66;;;6.95;70.16
66887;BME280;67239;51.680;5.976;2024-03-08T09:59:53;101197.09;;;7.01;70.15
66887;BME280;67239;51.680;5.976;2024-03-08T10:02:20;101190.91;;;7.08;70.31
66887;BME280;67239;51.680;5.976;2024-03-08T10:04:48;101184.66;;;7.20;70.56
66887;BME280;67239;51.680;5.976;2024-03-08T10:07:15;101166.16;;;7.32;69.82
66887;BME280;67239;51.680;5.976;2024-03-08T10:09:43;101171.22;;;7.49;67.76
66887;BME280;67239;51.680;5.976;2024-03-08T10:12:16;101160.66;;;7.54;67.52
66887;BME280;67239;51.680;5.976;2024-03-08T10:14:45;101159.63;;;7.66;66.31
66887;BME280;67239;51.680;5.976;2024-03-08T10:17:13;101153.50;;;7.67;66.36
66887;BME280;67239;51.680;5.976;2024-03-08T10:19:49;101151.63;;;7.76;65.99
66887;BME280;67239;51.680;5.976;2024-03-08T10:22:19;101140.09;;;7.85;65.87
66887;BME280;67239;51.680;5.976;2024-03-08T10:24:46;101136.59;;;7.86;66.32
66887;BME280;67239;51.680;5.976;2024-03-08T10:27:16;101135.66;;;7.93;67.02
66887;BME280;67239;51.680;5.976;2024-03-08T10:29:48;101127.59;;;8.04;66.00
66887;BME280;67239;51.680;5.976;2024-03-08T10:32:17;101138.00;;;8.12;65.89
66887;BME280;67239;51.680;5.976;2024-03-08T10:34:44;101124.78;;;8.15;66.93
66887;BME280;67239;51.680;5.976;2024-03-08T10:37:15;101123.75;;;8.27;65.28
66887;BME280;67239;51.680;5.976;2024-03-08T10:40:09;101127.06;;;8.37;64.75
66887;BME280;67239;51.680;5.976;2024-03-08T10:42:56;101123.50;;;8.41;64.13
66887;BME280;67239;51.680;5.976;2024-03-08T10:45:36;101117.25;;;8.50;64.46
66887;BME280;67239;51.680;5.976;2024-03-08T10:48:29;101119.75;;;8.58;63.83
66887;BME280;67239;51.680;5.976;2024-03-08T10:51:05;101114.34;;;8.67;63.10
66887;BME280;67239;51.680;5.976;2024-03-08T10:53:35;101109.09;;;8.65;63.38
66887;BME280;67239;51.680;5.976;2024-03-08T10:56:04;101105.50;;;8.71;63.47
66887;BME280;67239;51.680;5.976;2024-03-08T10:58:32;101101.84;;;8.80;62.10
66887;BME280;67239;51.680;5.976;2024-03-08T11:01:02;101092.13;;;8.83;62.12
66887;BME280;67239;51.680;5.976;2024-03-08T11:06:07;101086.59;;;8.97;61.91
66887;BME280;67239;51.680;5.976;2024-03-08T11:08:38;101085.53;;;9.08;61.55
66887;BME280;67239;51.680;5.976;2024-03-08T11:11:23;101080.75;;;9.27;59.72
66887;BME280;67239;51.680;5.976;2024-03-08T11:13:58;101067.38;;;9.36;59.08
66887;BME280;67239;51.680;5.976;2024-03-08T11:18:54;101051.31;;;9.50;56.59
66887;BME280;67239;51.680;5.976;2024-03-08T11:21:43;101070.69;;;9.46;57.33
66887;BME280;67239;51.680;5.976;2024-03-08T11:24:12;101054.84;;;9.49;56.99
66887;BME280;67239;51.680;5.976;2024-03-08T11:26:45;101053.13;;;9.46;57.13
66887;BME280;67239;51.680;5.976;2024-03-08T11:34:48;101040.53;;;9.61;55.28
66887;BME280;67239;51.680;5.976;2024-03-08T11:37:20;101035.31;;;9.59;55.61
66887;BME280;67239;51.680;5.976;2024-03-08T11:39:52;101031.69;;;9.65;54.72
66887;BME280;67239;51.680;5.976;2024-03-08T11:42:25;101028.09;;;9.68;56.14
66887;BME280;67239;51.680;5.976;2024-03-08T11:44:53;101023.56;;;9.74;56.77
66887;BME280;67239;51.680;5.976;2024-03-08T11:47:21;101014.59;;;9.82;56.88
66887;BME280;67239;51.680;5.976;2024-03-08T11:49:48;101012.53;;;9.94;56.15
66887;BME280;67239;51.680;5.976;2024-03-08T11:52:17;101015.69;;;10.09;55.77
66887;BME280;67239;51.680;5.976;2024-03-08T11:54:52;101010.34;;;10.12;54.45
66887;BME280;67239;51.680;5.976;2024-03-08T11:57:24;100999.88;;;10.09;53.49
66887;BME280;67239;51.680;5.976;2024-03-08T11:59:54;101007.00;;;10.05;54.42
66887;BME280;67239;51.680;5.976;2024-03-08T12:02:27;101000.84;;;10.06;54.47
66887;BME280;67239;51.680;5.976;2024-03-08T12:04:58;100989.28;;;10.12;54.78
66887;BME280;67239;51.680;5.976;2024-03-08T12:07:28;100996.13;;;10.18;53.97
66887;BME280;67239;51.680;5.976;2024-03-08T12:10:18;100992.44;;;10.25;54.40
66887;BME280;67239;51.680;5.976;2024-03-08T12:12:51;100988.72;;;10.32;54.31
66887;BME280;67239;51.680;5.976;2024-03-08T12:15:23;100972.78;;;10.38;53.50
66887;BME280;67239;51.680;5.976;2024-03-08T12:17:53;100972.66;;;10.43;53.79
66887;BME280;67239;51.680;5.976;2024-03-08T12:20:24;100967.34;;;10.45;53.16
66887;BME280;67239;51.680;5.976;2024-03-08T12:22:53;100963.72;;;10.49;52.90
66887;BME280;67239;51.680;5.976;2024-03-08T12:25:31;100967.22;;;10.49;53.29
66887;BME280;67239;51.680;5.976;2024-03-08T12:28:09;100955.66;;;10.53;52.50
66887;BME280;67239;51.680;5.976;2024-03-08T12:30:48;100958.31;;;10.53;52.77
66887;BME280;67239;51.680;5.976;2024-03-08T12:33:19;100946.84;;;10.56;52.48
66887;BME280;67239;51.680;5.976;2024-03-08T12:35:51;100946.72;;;10.59;53.05
66887;BME280;67239;51.680;5.976;2024-03-08T12:38:23;100943.88;;;10.67;52.69
66887;BME280;67239;51.680;5.976;2024-03-08T12:41:00;100934.91;;;10.72;51.50
66887;BME280;67239;51.680;5.976;2024-03-08T12:43:29;100942.00;;;10.70;50.32
66887;BME280;67239;51.680;5.976;2024-03-08T12:46:01;100938.78;;;10.61;50.39
66887;BME280;67239;51.680;5.976;2024-03-08T12:48:28;100941.44;;;10.61;50.66
66887;BME280;67239;51.680;5.976;2024-03-08T12:51:01;100929.22;;;10.56;51.52
66887;BME280;67239;51.680;5.976;2024-03-08T12:53:28;100927.28;;;10.63;51.47
66887;BME280;67239;51.680;5.976;2024-03-08T12:55:56;100924.56;;;10.66;52.05
66887;BME280;67239;51.680;5.976;2024-03-08T12:58:24;100923.41;;;10.75;51.11
66887;BME280;67239;51.680;5.976;2024-03-08T13:00:52;100919.03;;;10.76;50.96
66887;BME280;67239;51.680;5.976;2024-03-08T13:03:20;100910.22;;;10.75;51.31
66887;BME280;67239;51.680;5.976;2024-03-08T13:05:49;100903.06;;;10.80;52.96
66887;BME280;67239;51.680;5.976;2024-03-08T13:08:17;100909.78;;;10.91;51.56
66887;BME280;67239;51.680;5.976;2024-03-08T13:10:45;100897.34;;;10.94;51.05
66887;BME280;67239;51.680;5.976;2024-03-08T13:13:12;100894.63;;;10.97;51.16
66887;BME280;67239;51.680;5.976;2024-03-08T13:15:40;100892.69;;;11.02;50.83
66887;BME280;67239;51.680;5.976;2024-03-08T13:18:11;100884.78;;;11.02;51.80
66887;BME280;67239;51.680;5.976;2024-03-08T13:20:38;100887.13;;;11.12;51.55